createdAt,value
2018-04-04T00:00:36.151Z,31.80
2018-04-04T00:03:03.774Z,31.40
2018-04-04T00:05:31.478Z,34.00
2018-04-04T00:07:59.061Z,33.40
2018-04-04T00:10:26.647Z,36.00
2018-04-04T00:12:55.888Z,37.60
2018-04-04T00:15:23.464Z,32.60
2018-04-04T00:17:52.300Z,30.20
2018-04-04T00:20:19.957Z,30.40
2018-04-04T00:22:48.305Z,29.00
2018-04-04T00:25:15.875Z,28.90
2018-04-04T00:27:43.479Z,27.90
2018-04-04T00:30:13.981Z,27.50
2018-04-04T00:32:41.561Z,28.10
2018-04-04T00:35:09.260Z,29.70
2018-04-04T00:37:36.842Z,28.50
2018-04-04T00:40:04.428Z,27.60
2018-04-04T00:42:33.184Z,27.60
2018-04-04T00:45:00.788Z,27.20
2018-04-04T00:47:28.359Z,27.50
2018-04-04T00:49:55.960Z,27.40
2018-04-04T00:52:23.528Z,27.30
2018-04-04T00:54:51.874Z,27.90
2018-04-04T00:57:19.508Z,27.90
2018-04-04T00:59:47.074Z,27.50
2018-04-04T01:02:15.365Z,27.40
2018-04-04T01:04:43.003Z,27.50
2018-04-04T01:07:10.621Z,27.20
2018-04-04T01:09:38.208Z,27.30
2018-04-04T01:12:05.812Z,27.60
2018-04-04T01:14:33.763Z,27.90
2018-04-04T01:17:01.361Z,27.10
2018-04-04T01:19:28.982Z,27.60
2018-04-04T01:21:57.393Z,27.80
2018-04-04T01:24:24.968Z,27.80
2018-04-04T01:26:52.575Z,27.60
2018-04-04T01:29:20.176Z,28.20
2018-04-04T01:31:47.796Z,27.80
2018-04-04T01:34:15.400Z,27.70
2018-04-04T01:36:43.836Z,27.20
2018-04-04T01:39:11.700Z,27.20
2018-04-04T01:41:39.309Z,27.30
2018-04-04T01:44:06.890Z,26.90
2018-04-04T01:46:35.338Z,27.20
2018-04-04T01:49:02.971Z,27.20
2018-04-04T01:51:33.534Z,27.50
2018-04-04T01:54:01.198Z,27.50
2018-04-04T01:56:28.813Z,27.60
2018-04-04T01:58:57.155Z,27.50
2018-04-04T02:01:25.864Z,27.50
2018-04-04T02:03:53.475Z,27.40
2018-04-04T02:06:21.823Z,27.30
2018-04-04T02:08:49.412Z,27.20
2018-04-04T02:11:17.026Z,27.70
2018-04-04T02:13:44.607Z,27.30
2018-04-04T02:16:12.236Z,27.50
2018-04-04T02:18:39.839Z,27.30
2018-04-04T02:21:09.557Z,27.30
2018-04-04T02:23:37.906Z,27.40
2018-04-04T02:26:06.245Z,27.40
2018-04-04T02:28:34.680Z,27.30
2018-04-04T02:31:02.344Z,27.30
2018-04-04T02:33:30.720Z,27.00
2018-04-04T02:35:58.311Z,26.80
2018-04-04T02:38:25.892Z,26.80
2018-04-04T02:40:53.552Z,26.90
2018-04-04T02:43:21.149Z,27.30
2018-04-04T02:45:48.732Z,27.30
2018-04-04T02:48:16.346Z,27.40
2018-04-04T02:50:43.996Z,29.30
2018-04-04T02:53:11.572Z,28.50
2018-04-04T02:55:39.171Z,29.80
2018-04-04T02:58:06.745Z,28.60
2018-04-04T03:00:34.329Z,29.70
2018-04-04T03:03:01.950Z,31.90
2018-04-04T03:05:29.533Z,30.60
2018-04-04T03:07:57.109Z,32.50
2018-04-04T03:10:24.707Z,33.90
2018-04-04T03:12:52.293Z,33.80
2018-04-04T03:15:19.876Z,33.60
2018-04-04T03:17:47.498Z,34.60
2018-04-04T03:20:15.150Z,34.00
2018-04-04T03:22:43.657Z,36.10
2018-04-04T03:25:11.306Z,36.40
2018-04-04T03:27:38.885Z,37.90
2018-04-04T03:30:06.494Z,38.10
2018-04-04T03:32:34.125Z,38.50
2018-04-04T03:35:01.767Z,38.10
2018-04-04T03:37:29.353Z,39.00
2018-04-04T03:39:57.462Z,39.70
2018-04-04T03:42:25.057Z,39.50
2018-04-04T03:44:52.631Z,40.80
2018-04-04T03:47:20.222Z,41.30
2018-04-04T03:49:47.794Z,41.90
2018-04-04T03:52:15.373Z,41.80
2018-04-04T03:54:43.773Z,43.60
2018-04-04T03:57:12.118Z,44.00
2018-04-04T03:59:39.780Z,44.00
2018-04-04T04:02:07.384Z,44.70
2018-04-04T04:04:34.956Z,45.80
2018-04-04T04:07:02.531Z,46.20
2018-04-04T04:09:30.151Z,46.80
2018-04-04T04:11:57.720Z,47.30
2018-04-04T04:14:25.302Z,47.90
2018-04-04T04:16:52.995Z,47.80
2018-04-04T04:19:21.161Z,48.00
2018-04-04T04:21:48.737Z,48.50
2018-04-04T04:24:16.348Z,49.50
2018-04-04T04:26:44.481Z,50.00
2018-04-04T04:29:12.123Z,49.30
2018-04-04T04:31:39.752Z,50.20
2018-04-04T04:34:07.319Z,50.90
2018-04-04T04:36:34.889Z,51.30
2018-04-04T04:39:02.506Z,51.10
2018-04-04T04:41:30.080Z,51.40
2018-04-04T04:43:57.684Z,52.00
2018-04-04T04:46:25.301Z,52.60
2018-04-04T04:48:52.876Z,52.90
2018-04-04T04:51:20.444Z,53.70
2018-04-04T04:53:48.052Z,53.30
2018-04-04T04:56:15.638Z,54.00
2018-04-04T04:58:43.981Z,53.70
2018-04-04T05:01:11.608Z,53.60
2018-04-04T05:03:40.049Z,54.40
2018-04-04T05:06:07.623Z,54.40
2018-04-04T05:08:35.225Z,55.20
2018-04-04T05:11:03.486Z,54.90
2018-04-04T05:13:31.128Z,56.00
2018-04-04T05:15:58.745Z,55.30
2018-04-04T05:18:26.963Z,55.80
2018-04-04T05:20:54.576Z,56.00
2018-04-04T05:23:22.193Z,56.80
2018-04-04T05:25:49.843Z,57.00
2018-04-04T05:28:17.415Z,56.30
2018-04-04T05:30:45.016Z,56.50
2018-04-04T05:33:12.587Z,56.40
2018-04-04T05:35:40.194Z,56.50
2018-04-04T05:38:07.801Z,55.90
2018-04-04T05:40:35.376Z,56.80
2018-04-04T05:43:02.979Z,56.80
2018-04-04T05:45:30.592Z,56.40
2018-04-04T05:47:58.199Z,56.20
2018-04-04T05:50:25.772Z,55.80
2018-04-04T05:52:53.448Z,55.50
2018-04-04T05:55:21.024Z,55.20
2018-04-04T05:57:59.359Z,54.80
2018-04-04T06:00:26.997Z,54.70
2018-04-04T06:02:54.569Z,53.20
2018-04-04T06:05:22.181Z,51.10
2018-04-04T06:07:49.783Z,50.40
2018-04-04T06:10:18.138Z,44.20
2018-04-04T06:12:45.818Z,44.00
2018-04-04T06:15:13.728Z,45.70
2018-04-04T06:17:42.064Z,43.70
2018-04-04T06:20:09.676Z,43.20
2018-04-04T06:22:37.256Z,37.90
2018-04-04T06:25:04.829Z,38.80
2018-04-04T06:27:32.453Z,39.20
2018-04-04T06:30:00.045Z,33.30
2018-04-04T06:32:27.619Z,32.70
2018-04-04T06:34:55.287Z,35.40
2018-04-04T06:37:22.868Z,32.70
2018-04-04T06:39:50.462Z,34.90
2018-04-04T06:42:18.080Z,31.20
2018-04-04T06:44:45.648Z,32.00
2018-04-04T06:47:13.316Z,30.70
2018-04-04T06:49:40.895Z,26.70
2018-04-04T06:52:09.210Z,21.30
2018-04-04T06:54:36.791Z,21.30
2018-04-04T06:57:04.466Z,18.50
2018-04-04T06:59:32.032Z,17.30
2018-04-04T07:01:59.602Z,15.90
2018-04-04T07:04:27.181Z,16.90
2018-04-04T07:06:54.755Z,16.20
2018-04-04T07:09:22.312Z,14.70
2018-04-04T07:11:49.903Z,13.90
2018-04-04T07:14:17.463Z,12.50
2018-04-04T07:16:45.035Z,12.10
2018-04-04T07:19:12.616Z,11.90
2018-04-04T07:21:40.176Z,10.90
2018-04-04T07:24:08.504Z,10.00
2018-04-04T07:26:36.126Z,10.60
2018-04-04T07:29:04.441Z,9.40
2018-04-04T07:31:31.992Z,9.40
2018-04-04T07:34:00.333Z,9.20
2018-04-04T07:36:27.883Z,9.20
2018-04-04T07:38:55.435Z,8.70
2018-04-04T07:41:23.795Z,7.90
2018-04-04T07:43:51.340Z,7.80
2018-04-04T07:46:18.883Z,8.10
2018-04-04T07:48:46.477Z,7.40
2018-04-04T07:51:14.028Z,6.90
2018-04-04T07:53:41.567Z,7.50
2018-04-04T07:56:09.181Z,7.40
2018-04-04T07:58:36.727Z,6.60
2018-04-04T08:01:05.096Z,6.40
2018-04-04T08:03:32.672Z,6.50
2018-04-04T08:06:00.279Z,7.30
2018-04-04T08:08:28.041Z,6.70
2018-04-04T08:10:56.397Z,8.20
2018-04-04T08:13:24.142Z,8.20
2018-04-04T08:15:51.788Z,9.80
2018-04-04T08:18:19.384Z,8.30
2018-04-04T08:20:46.932Z,8.10
2018-04-04T08:23:15.293Z,6.70
2018-04-04T08:25:42.903Z,6.60
2018-04-04T08:28:11.227Z,6.20
2018-04-04T08:30:38.793Z,6.20
2018-04-04T08:33:06.402Z,5.30
2018-04-04T08:35:33.991Z,5.50
2018-04-04T08:38:01.549Z,5.90
2018-04-04T08:40:29.915Z,5.70
2018-04-04T08:46:28.182Z,4.60
2018-04-04T08:48:55.729Z,4.50
2018-04-04T08:51:23.293Z,4.90
2018-04-04T08:53:50.863Z,3.10
2018-04-04T08:56:19.370Z,5.50
2018-04-04T08:58:47.550Z,5.80
2018-04-04T09:01:15.948Z,4.50
2018-04-04T09:03:43.509Z,4.50
2018-04-04T09:06:11.055Z,4.00
2018-04-04T09:08:38.668Z,4.40
2018-04-04T09:11:06.229Z,5.80
2018-04-04T09:13:33.780Z,6.40
2018-04-04T09:16:01.365Z,4.10
2018-04-04T09:18:28.921Z,6.10
2018-04-04T09:20:56.605Z,4.60
2018-04-04T09:23:24.188Z,5.00
2018-04-04T09:25:51.794Z,4.70
2018-04-04T09:28:20.132Z,4.80
2018-04-04T09:30:47.726Z,5.70
2018-04-04T09:33:15.281Z,6.40
2018-04-04T09:35:42.826Z,7.10
2018-04-04T09:38:11.586Z,5.90
2018-04-04T09:40:39.178Z,6.00
2018-04-04T09:43:06.719Z,7.70
2018-04-04T09:45:34.303Z,5.80
2018-04-04T09:48:01.863Z,5.50
2018-04-04T09:50:29.408Z,6.30
2018-04-04T09:52:57.053Z,5.80
2018-04-04T09:55:25.383Z,4.90
2018-04-04T09:57:52.936Z,4.80
2018-04-04T10:00:20.515Z,4.20
2018-04-04T10:02:49.024Z,4.10
2018-04-04T10:05:16.602Z,5.60
2018-04-04T10:07:44.218Z,5.30
2018-04-04T10:10:11.776Z,4.00
2018-04-04T10:12:39.324Z,4.00
2018-04-04T10:15:06.913Z,5.10
2018-04-04T10:17:34.491Z,3.10
2018-04-04T10:20:02.113Z,5.30
2018-04-04T10:22:29.700Z,3.90
2018-04-04T10:24:57.291Z,4.10
2018-04-04T10:27:24.852Z,2.50
2018-04-04T10:29:52.438Z,2.60
2018-04-04T10:32:20.091Z,2.50
2018-04-04T10:34:47.644Z,3.80
2018-04-04T10:37:15.987Z,4.50
2018-04-04T10:39:43.629Z,4.40
2018-04-04T10:42:11.171Z,3.50
2018-04-04T10:44:39.563Z,3.00
2018-04-04T10:47:07.169Z,2.50
2018-04-04T10:49:34.726Z,2.10
2018-04-04T10:52:02.362Z,2.50
2018-04-04T10:54:29.930Z,3.70
2018-04-04T10:56:57.480Z,3.00
2018-04-04T10:59:25.165Z,3.10
2018-04-04T11:01:52.748Z,3.10
2018-04-04T11:04:20.340Z,1.70
2018-04-04T11:06:47.944Z,1.90
2018-04-04T11:09:15.492Z,1.50
2018-04-04T11:11:43.810Z,2.50
2018-04-04T11:14:11.386Z,2.10
2018-04-04T11:16:38.927Z,2.50
2018-04-04T11:19:06.539Z,3.50
2018-04-04T11:21:34.124Z,2.80
2018-04-04T11:24:01.669Z,4.00
2018-04-04T11:26:29.209Z,2.60
2018-04-04T11:28:57.563Z,3.60
2018-04-04T11:31:25.118Z,3.30
2018-04-04T11:33:55.327Z,3.60
2018-04-04T11:36:23.738Z,4.10
2018-04-04T11:38:51.309Z,4.00
2018-04-04T11:41:18.877Z,1.90
2018-04-04T11:43:46.472Z,2.90
2018-04-04T11:46:14.133Z,2.50
2018-04-04T11:48:41.683Z,4.10
2018-04-04T11:51:10.036Z,4.30
2018-04-04T11:53:37.601Z,4.30
2018-04-04T11:56:05.963Z,3.50
2018-04-04T11:58:33.560Z,4.30
2018-04-04T12:01:01.117Z,3.90
2018-04-04T12:03:28.674Z,3.10
2018-04-04T12:05:56.376Z,4.90
2018-04-04T12:08:23.923Z,4.00
2018-04-04T12:10:51.476Z,3.80
2018-04-04T12:13:19.806Z,3.50
2018-04-04T12:15:47.358Z,3.50
2018-04-04T12:18:15.075Z,4.10
2018-04-04T12:20:42.664Z,3.50
2018-04-04T12:23:10.281Z,2.90
2018-04-04T12:25:37.837Z,2.70
2018-04-04T12:28:06.180Z,2.20
2018-04-04T12:30:33.775Z,2.10
2018-04-04T12:33:01.319Z,1.40
2018-04-04T12:35:28.896Z,1.70
2018-04-04T12:37:57.200Z,2.40
2018-04-04T12:40:24.756Z,4.30
2018-04-04T12:42:52.936Z,3.00
2018-04-04T12:45:20.488Z,2.90
2018-04-04T12:47:48.059Z,3.10
2018-04-04T12:50:16.545Z,3.60
2018-04-04T12:52:44.109Z,2.20
2018-04-04T12:55:11.666Z,2.70
2018-04-04T12:57:40.009Z,3.10
2018-04-04T13:00:07.561Z,3.10
2018-04-04T13:02:35.118Z,3.40
2018-04-04T13:05:02.830Z,4.10
2018-04-04T13:07:30.445Z,3.80
2018-04-04T13:09:58.773Z,4.60
2018-04-04T13:12:26.504Z,4.50
2018-04-04T13:14:54.174Z,4.10
2018-04-04T13:17:21.778Z,4.80
2018-04-04T13:19:50.122Z,5.40
2018-04-04T13:22:17.671Z,5.40
2018-04-04T13:24:45.229Z,5.00
2018-04-04T13:27:14.046Z,4.10
2018-04-04T13:29:41.592Z,5.10
2018-04-04T13:32:09.136Z,2.90
2018-04-04T13:34:38.361Z,3.90
2018-04-04T13:37:05.928Z,3.60
2018-04-04T13:39:34.246Z,3.10
2018-04-04T13:42:01.825Z,3.10
2018-04-04T13:44:29.384Z,4.50
2018-04-04T13:46:56.939Z,3.70
2018-04-04T13:49:25.285Z,3.90
2018-04-04T13:51:52.996Z,3.90
2018-04-04T13:54:21.316Z,4.50
2018-04-04T13:56:49.000Z,3.90
2018-04-04T13:59:16.551Z,4.00
2018-04-04T14:01:44.881Z,3.20
2018-04-04T14:04:12.494Z,3.10
2018-04-04T14:06:40.036Z,3.60
2018-04-04T14:09:10.795Z,4.00
2018-04-04T14:11:38.847Z,4.20
2018-04-04T14:14:06.514Z,4.50
2018-04-04T14:16:34.092Z,4.90
2018-04-04T14:19:01.716Z,4.80
2018-04-04T14:21:29.270Z,4.70
2018-04-04T14:23:57.808Z,5.20
2018-04-04T14:26:26.152Z,6.10
2018-04-04T14:28:53.767Z,6.10
2018-04-04T14:31:21.305Z,6.30
2018-04-04T14:33:48.897Z,6.90
2018-04-04T14:36:17.241Z,7.00
2018-04-04T14:38:44.891Z,6.90
2018-04-04T14:41:12.577Z,7.00
2018-04-04T14:43:40.137Z,7.20
2018-04-04T14:46:07.693Z,7.20
2018-04-04T14:48:36.032Z,7.60
2018-04-04T14:51:03.617Z,7.50
2018-04-04T14:53:31.188Z,7.50
2018-04-04T14:55:58.769Z,7.50
2018-04-04T14:58:26.398Z,7.40
2018-04-04T15:00:53.980Z,6.80
2018-04-04T15:03:22.449Z,7.00
2018-04-04T15:05:50.008Z,6.70
2018-04-04T15:08:18.370Z,7.40
2018-04-04T15:10:45.964Z,7.40
2018-04-04T15:13:13.551Z,7.00
2018-04-04T15:15:41.909Z,7.10
2018-04-04T15:18:11.237Z,7.10
2018-04-04T15:20:38.792Z,7.70
2018-04-04T15:23:06.432Z,7.70
2018-04-04T15:25:34.037Z,7.60
2018-04-04T15:28:02.904Z,7.80
2018-04-04T15:30:30.463Z,7.50
2018-04-04T15:32:58.056Z,7.80
2018-04-04T15:35:26.395Z,8.70
2018-04-04T15:37:53.974Z,7.90
2018-04-04T15:40:21.998Z,8.20
2018-04-04T15:42:49.604Z,8.40
2018-04-04T15:45:17.176Z,8.50
2018-04-04T15:47:44.779Z,8.20
2018-04-04T15:50:12.403Z,8.40
2018-04-04T15:52:40.718Z,8.10
2018-04-04T15:55:08.315Z,8.00
2018-04-04T15:57:37.985Z,8.00
2018-04-04T16:00:05.552Z,8.00
2018-04-04T16:02:33.139Z,8.20
2018-04-04T16:05:00.727Z,8.60
2018-04-04T16:07:28.286Z,9.00
2018-04-04T16:09:55.901Z,9.30
2018-04-04T16:12:23.470Z,9.80
2018-04-04T16:14:51.031Z,9.60
2018-04-04T16:17:18.620Z,9.90
2018-04-04T16:19:46.217Z,9.90
2018-04-04T16:22:13.773Z,10.00
2018-04-04T16:24:42.438Z,9.90
2018-04-04T16:27:14.316Z,10.10
2018-04-04T16:29:42.556Z,10.10
2018-04-04T16:32:13.107Z,9.80
2018-04-04T16:34:41.043Z,10.10
2018-04-04T16:37:13.073Z,9.80
2018-04-04T16:42:16.529Z,9.80
2018-04-04T16:44:44.231Z,9.90
2018-04-04T16:47:11.811Z,10.10
2018-04-04T16:49:43.224Z,10.30
2018-04-04T16:52:10.794Z,10.30
2018-04-04T16:54:38.840Z,10.60
2018-04-04T16:57:08.104Z,10.80
2018-04-04T16:59:37.689Z,10.90
2018-04-04T17:02:10.552Z,11.00
2018-04-04T17:04:40.015Z,11.50
2018-04-04T17:07:08.422Z,11.90
2018-04-04T17:09:36.016Z,12.40
2018-04-04T17:12:03.785Z,12.40
2018-04-04T17:14:31.548Z,12.90
2018-04-04T17:17:01.563Z,13.30
2018-04-04T17:19:29.151Z,13.50
2018-04-04T17:22:02.254Z,13.70
2018-04-04T17:24:31.888Z,13.80
2018-04-04T17:27:02.173Z,14.20
2018-04-04T17:29:30.685Z,14.50
2018-04-04T17:32:03.711Z,14.80
2018-04-04T17:34:31.730Z,14.90
2018-04-04T17:36:59.336Z,14.90
2018-04-04T17:39:28.250Z,15.00
2018-04-04T17:41:59.113Z,15.00
2018-04-04T17:44:28.492Z,15.00
2018-04-04T17:46:57.336Z,15.30
2018-04-04T17:49:25.968Z,15.30
2018-04-04T17:51:54.959Z,15.50
2018-04-04T17:54:23.619Z,15.90
2018-04-04T17:56:53.300Z,16.50
2018-04-04T17:59:22.529Z,16.40
2018-04-04T18:01:52.441Z,16.30
2018-04-04T18:04:22.526Z,16.50
2018-04-04T18:06:51.229Z,16.70
2018-04-04T18:09:19.720Z,17.00
2018-04-04T18:11:49.771Z,17.00
2018-04-04T18:14:23.057Z,17.50
2018-04-04T18:16:51.079Z,17.40
2018-04-04T18:19:21.124Z,17.80
2018-04-04T18:21:50.805Z,18.10
2018-04-04T18:24:18.381Z,18.00
2018-04-04T18:26:45.990Z,18.20
2018-04-04T18:29:13.720Z,18.40
2018-04-04T18:31:41.277Z,18.90
2018-04-04T18:34:09.057Z,18.70
2018-04-04T18:36:37.643Z,19.00
2018-04-04T18:39:05.985Z,19.20
2018-04-04T18:41:34.308Z,19.20
2018-04-04T18:44:02.632Z,19.70
2018-04-04T18:46:30.286Z,19.40
2018-04-04T18:48:57.901Z,19.40
2018-04-04T18:51:25.498Z,19.70
2018-04-04T18:53:53.258Z,20.40
2018-04-04T18:56:20.807Z,20.10
2018-04-04T18:58:48.432Z,20.10
2018-04-04T19:01:16.019Z,20.10
2018-04-04T19:03:44.428Z,20.00
2018-04-04T19:06:12.790Z,20.70
2018-04-04T19:08:41.145Z,20.40
2018-04-04T19:11:08.716Z,20.30
2018-04-04T19:13:36.300Z,20.80
2018-04-04T19:16:03.960Z,20.00
2018-04-04T19:18:31.605Z,20.80
2018-04-04T19:20:59.963Z,20.50
2018-04-04T19:23:27.520Z,20.50
2018-04-04T19:25:55.091Z,21.00
2018-04-04T19:28:22.686Z,21.20
2018-04-04T19:30:50.338Z,21.90
2018-04-04T19:33:17.921Z,21.70
2018-04-04T19:35:45.526Z,21.70
2018-04-04T19:38:13.852Z,21.30
2018-04-04T19:40:41.421Z,21.10
2018-04-04T19:43:09.016Z,20.70
2018-04-04T19:45:36.572Z,20.50
2018-04-04T19:48:04.210Z,19.70
2018-04-04T19:50:32.559Z,19.50
2018-04-04T19:53:00.127Z,19.50
2018-04-04T19:55:27.692Z,19.80
2018-04-04T19:57:55.284Z,20.00
2018-04-04T20:00:23.087Z,19.80
2018-04-04T20:02:50.660Z,19.70
2018-04-04T20:05:18.266Z,21.20
2018-04-04T20:07:45.866Z,20.60
2018-04-04T20:10:13.441Z,21.30
2018-04-04T20:12:41.104Z,21.70
2018-04-04T20:15:08.698Z,24.10
2018-04-04T20:17:37.086Z,23.70
2018-04-04T20:20:04.930Z,23.70
2018-04-04T20:22:32.948Z,23.60
2018-04-04T20:25:00.573Z,20.90
2018-04-04T20:27:28.156Z,20.90
2018-04-04T20:29:55.729Z,20.70
2018-04-04T20:32:23.288Z,20.40
2018-04-04T20:34:51.771Z,20.80
2018-04-04T20:37:19.473Z,20.80
2018-04-04T20:39:47.040Z,21.00
2018-04-04T20:42:14.629Z,20.30
2018-04-04T20:44:42.197Z,20.10
2018-04-04T20:47:09.788Z,20.00
2018-04-04T20:49:37.400Z,20.00
2018-04-04T20:52:04.972Z,20.10
2018-04-04T20:54:33.475Z,20.20
2018-04-04T20:57:01.833Z,20.10
2018-04-04T20:59:29.574Z,20.10
2018-04-04T21:04:31.340Z,20.40
2018-04-04T21:06:58.887Z,19.90
2018-04-04T21:09:26.444Z,20.40
2018-04-04T21:11:54.064Z,20.00
2018-04-04T21:14:22.618Z,21.20
2018-04-04T21:16:50.452Z,21.10
2018-04-04T21:19:18.200Z,22.40
2018-04-04T21:21:45.761Z,24.00
2018-04-04T21:24:13.321Z,24.60
2018-04-04T21:26:40.936Z,25.80
2018-04-04T21:29:08.745Z,26.30
2018-04-04T21:31:36.327Z,26.80
2018-04-04T21:34:03.946Z,27.60
2018-04-04T21:36:32.242Z,29.00
2018-04-04T21:38:59.837Z,28.60
2018-04-04T21:41:27.453Z,28.60
2018-04-04T21:43:55.012Z,29.50
2018-04-04T21:46:22.590Z,30.80
2018-04-04T21:48:50.215Z,32.50
2018-04-04T21:51:18.032Z,37.70
2018-04-04T21:53:45.624Z,45.50
2018-04-04T21:56:13.252Z,51.50
2018-04-04T21:58:40.823Z,50.40
2018-04-04T22:01:08.409Z,51.50
2018-04-04T22:03:36.012Z,57.50
2018-04-04T22:06:03.592Z,57.70
2018-04-04T22:08:31.185Z,58.10
2018-04-04T22:10:58.799Z,58.80
2018-04-04T22:13:26.385Z,62.60
2018-04-04T22:15:53.976Z,70.20
2018-04-04T22:18:21.590Z,77.70
2018-04-04T22:20:49.174Z,81.00
2018-04-04T22:23:16.757Z,84.50
2018-04-04T22:25:44.364Z,86.80
2018-04-04T22:28:11.949Z,85.20
2018-04-04T22:30:39.539Z,85.10
2018-04-04T22:33:07.914Z,88.30
2018-04-04T22:35:35.496Z,88.30
2018-04-04T22:38:03.081Z,60.80
2018-04-04T22:40:31.453Z,55.30
2018-04-04T22:42:59.031Z,54.60
2018-04-04T22:45:26.611Z,52.70
2018-04-04T22:47:55.003Z,46.30
2018-04-04T22:50:23.364Z,41.10
2018-04-04T22:52:50.944Z,41.20
2018-04-04T22:55:18.556Z,38.60
2018-04-04T22:57:46.170Z,37.40
2018-04-04T23:00:13.753Z,39.90
2018-04-04T23:02:41.364Z,37.40
2018-04-04T23:05:09.712Z,38.40
2018-04-04T23:07:37.315Z,38.50
2018-04-04T23:10:04.935Z,38.20
2018-04-04T23:12:32.514Z,37.20
2018-04-04T23:15:00.088Z,36.90
2018-04-04T23:17:27.683Z,36.60
2018-04-04T23:19:55.276Z,37.60
2018-04-04T23:22:22.856Z,36.30
2018-04-04T23:24:50.483Z,36.70
2018-04-04T23:27:18.080Z,37.10
2018-04-04T23:29:45.682Z,37.10
2018-04-04T23:32:14.067Z,38.00
2018-04-04T23:34:41.649Z,37.40
2018-04-04T23:37:10.006Z,38.60
2018-04-04T23:39:37.636Z,38.70
2018-04-04T23:42:05.281Z,37.50
2018-04-04T23:44:32.831Z,38.60
2018-04-04T23:47:00.454Z,38.50
2018-04-04T23:49:28.046Z,38.20
2018-04-04T23:51:55.633Z,38.90
2018-04-04T23:54:23.251Z,38.10
2018-04-04T23:56:50.829Z,38.20
2018-04-04T23:59:19.169Z,37.70
